createdAt,value
2022-08-20T00:01:05.956Z,18.90
2022-08-20T00:03:44.779Z,18.90
2022-08-20T00:06:23.593Z,18.80
2022-08-20T00:08:51.008Z,18.80
2022-08-20T00:11:22.003Z,18.80
2022-08-20T00:13:55.799Z,18.70
2022-08-20T00:16:24.678Z,18.70
2022-08-20T00:18:51.640Z,18.70
2022-08-20T00:21:21.210Z,18.70
2022-08-20T00:23:52.161Z,18.70
2022-08-20T00:26:20.098Z,18.70
2022-08-20T00:28:47.216Z,18.70
2022-08-20T00:31:17.920Z,18.70
2022-08-20T00:33:44.889Z,18.60
2022-08-20T00:36:12.432Z,18.60
2022-08-20T00:38:42.073Z,18.60
2022-08-20T00:41:12.606Z,18.60
2022-08-20T00:44:19.271Z,18.60
2022-08-20T00:46:46.707Z,18.60
2022-08-20T00:49:19.870Z,18.60
2022-08-20T00:52:05.399Z,18.60
2022-08-20T00:54:43.402Z,18.60
2022-08-20T00:57:29.909Z,18.60
2022-08-20T01:00:25.760Z,18.60
2022-08-20T01:02:53.673Z,18.50
2022-08-20T01:05:29.439Z,18.50
2022-08-20T01:07:58.200Z,18.60
2022-08-20T01:10:35.314Z,18.50
2022-08-20T01:13:10.080Z,18.60
2022-08-20T01:15:42.987Z,18.60
2022-08-20T01:18:13.823Z,18.50
2022-08-20T01:20:46.580Z,18.60
2022-08-20T01:24:03.970Z,18.60
2022-08-20T01:26:37.840Z,18.60
2022-08-20T01:29:11.745Z,18.60
2022-08-20T01:31:40.560Z,18.60
2022-08-20T01:34:11.214Z,18.60
2022-08-20T01:36:45.567Z,18.60
2022-08-20T01:39:16.813Z,18.60
2022-08-20T01:41:49.677Z,18.60
2022-08-20T01:44:18.538Z,18.60
2022-08-20T01:46:48.083Z,18.50
2022-08-20T01:49:25.207Z,18.60
2022-08-20T01:51:54.265Z,18.60
2022-08-20T01:54:22.375Z,18.60
2022-08-20T01:57:17.175Z,18.70
2022-08-20T01:59:44.685Z,18.70
2022-08-20T02:02:12.858Z,18.70
2022-08-20T02:04:41.720Z,18.70
2022-08-20T02:07:14.696Z,18.70
2022-08-20T02:09:41.924Z,18.80
2022-08-20T02:12:10.775Z,18.80
2022-08-20T02:14:43.575Z,18.70
2022-08-20T02:17:11.091Z,18.70
2022-08-20T02:19:49.047Z,18.70
2022-08-20T02:22:22.114Z,18.70
2022-08-20T02:24:49.308Z,18.70
2022-08-20T02:27:16.226Z,18.70
2022-08-20T02:29:43.245Z,18.70
2022-08-20T02:32:24.163Z,18.70
2022-08-20T02:34:57.024Z,18.60
2022-08-20T02:37:23.856Z,18.60
2022-08-20T02:39:50.752Z,18.60
2022-08-20T02:42:18.160Z,18.60
2022-08-20T02:44:45.002Z,18.50
2022-08-20T02:47:11.815Z,18.50
2022-08-20T02:49:38.716Z,18.50
2022-08-20T02:52:05.562Z,18.50
2022-08-20T02:54:32.446Z,18.50
2022-08-20T02:56:59.349Z,18.50
2022-08-20T02:59:26.228Z,18.50
2022-08-20T03:01:59.685Z,18.50
2022-08-20T03:04:30.427Z,18.60
2022-08-20T03:06:58.333Z,18.50
2022-08-20T03:09:25.341Z,18.60
2022-08-20T03:11:52.906Z,18.60
2022-08-20T03:14:20.009Z,18.50
2022-08-20T03:16:46.821Z,18.60
2022-08-20T03:19:13.934Z,18.50
2022-08-20T03:21:40.942Z,18.60
2022-08-20T03:24:07.967Z,18.60
2022-08-20T03:26:34.861Z,18.60
2022-08-20T03:29:02.273Z,18.60
2022-08-20T03:31:29.720Z,18.60
2022-08-20T03:33:56.617Z,18.60
2022-08-20T03:36:28.863Z,18.70
2022-08-20T03:39:00.992Z,18.70
2022-08-20T03:41:29.096Z,18.60
2022-08-20T03:43:56.178Z,18.60
2022-08-20T03:46:23.943Z,18.60
2022-08-20T03:48:56.607Z,18.70
2022-08-20T03:51:31.089Z,18.70
2022-08-20T03:53:58.965Z,18.60
2022-08-20T03:56:26.680Z,18.60
2022-08-20T03:58:53.636Z,18.60
2022-08-20T04:01:45.227Z,18.60
2022-08-20T04:04:12.475Z,18.60
2022-08-20T04:06:40.096Z,18.50
2022-08-20T04:09:09.694Z,18.60
2022-08-20T04:11:40.058Z,18.50
2022-08-20T04:14:07.017Z,18.50
2022-08-20T04:16:34.381Z,18.60
2022-08-20T04:19:03.612Z,18.60
2022-08-20T04:21:32.938Z,18.60
2022-08-20T04:24:01.371Z,18.60
2022-08-20T04:26:28.432Z,18.60
2022-08-20T04:28:55.693Z,18.60
2022-08-20T04:31:33.797Z,18.60
2022-08-20T04:34:08.024Z,18.60
2022-08-20T04:36:37.565Z,18.60
2022-08-20T04:39:04.516Z,18.60
2022-08-20T04:41:31.388Z,18.60
2022-08-20T04:43:58.350Z,18.70
2022-08-20T04:46:28.606Z,18.70
2022-08-20T04:48:56.747Z,18.70
2022-08-20T04:51:24.442Z,18.70
2022-08-20T04:53:53.919Z,18.70
2022-08-20T04:56:39.166Z,18.70
2022-08-20T04:59:07.350Z,18.60
2022-08-20T05:01:34.606Z,18.50
2022-08-20T05:04:01.588Z,18.50
2022-08-20T05:06:31.400Z,18.40
2022-08-20T05:09:00.288Z,18.30
2022-08-20T05:11:35.507Z,18.30
2022-08-20T05:14:11.137Z,18.30
2022-08-20T05:16:40.652Z,18.30
2022-08-20T05:19:10.786Z,18.30
2022-08-20T05:21:38.972Z,18.30
2022-08-20T05:24:06.587Z,18.30
2022-08-20T05:26:33.796Z,18.30
2022-08-20T05:29:00.600Z,18.40
2022-08-20T05:31:31.529Z,18.40
2022-08-20T05:34:10.441Z,18.40
2022-08-20T05:36:43.131Z,18.40
2022-08-20T05:39:11.240Z,18.40
2022-08-20T05:41:39.009Z,18.50
2022-08-20T05:44:10.951Z,18.50
2022-08-20T05:46:41.693Z,18.60
2022-08-20T05:49:10.581Z,18.60
2022-08-20T05:51:37.552Z,18.70
2022-08-20T05:54:06.013Z,18.80
2022-08-20T05:56:33.976Z,18.90
2022-08-20T05:59:05.004Z,18.90
2022-08-20T06:01:33.474Z,19.00
2022-08-20T06:04:19.318Z,19.00
2022-08-20T06:06:47.289Z,19.10
2022-08-20T06:09:28.002Z,19.00
2022-08-20T06:12:06.182Z,19.10
2022-08-20T06:14:33.697Z,19.10
2022-08-20T06:17:13.294Z,19.10
2022-08-20T06:19:43.608Z,19.10
2022-08-20T06:22:19.242Z,19.30
2022-08-20T06:24:50.135Z,19.30
2022-08-20T06:27:17.864Z,19.50
2022-08-20T06:29:45.056Z,19.60
2022-08-20T06:32:11.897Z,19.70
2022-08-20T06:34:49.992Z,19.80
2022-08-20T06:37:30.008Z,19.90
2022-08-20T06:40:09.457Z,20.00
2022-08-20T06:42:36.441Z,20.10
2022-08-20T06:45:05.763Z,20.10
2022-08-20T06:47:33.464Z,20.10
2022-08-20T06:50:00.477Z,19.90
2022-08-20T06:52:51.783Z,19.80
2022-08-20T06:55:16.233Z,19.80
2022-08-20T06:57:43.591Z,19.80
2022-08-20T07:00:15.578Z,19.90
2022-08-20T07:02:43.155Z,19.90
2022-08-20T07:05:10.790Z,20.00
2022-08-20T07:07:38.158Z,20.00
2022-08-20T07:10:11.144Z,20.00
2022-08-20T07:12:38.484Z,20.10
2022-08-20T07:15:07.842Z,20.30
2022-08-20T07:17:34.933Z,20.60
2022-08-20T07:20:14.288Z,20.80
2022-08-20T07:22:42.336Z,21.00
2022-08-20T07:25:12.623Z,21.20
2022-08-20T07:27:40.236Z,21.40
2022-08-20T07:30:31.334Z,21.60
2022-08-20T07:32:58.674Z,21.70
2022-08-20T07:35:27.353Z,21.90
2022-08-20T07:37:57.405Z,22.00
2022-08-20T07:40:30.921Z,21.90
2022-08-20T07:43:00.937Z,21.90
2022-08-20T07:45:28.483Z,22.00
2022-08-20T07:47:56.015Z,22.10
2022-08-20T07:50:25.642Z,22.10
2022-08-20T07:52:53.259Z,22.00
2022-08-20T07:55:21.241Z,22.10
2022-08-20T07:57:50.194Z,22.30
2022-08-20T08:00:20.473Z,22.20
2022-08-20T08:02:47.445Z,22.40
2022-08-20T08:05:15.301Z,22.40
2022-08-20T08:07:43.175Z,22.40
2022-08-20T08:10:15.436Z,22.30
2022-08-20T08:12:44.627Z,22.30
2022-08-20T08:15:15.595Z,22.20
2022-08-20T08:17:44.451Z,22.20
2022-08-20T08:20:12.447Z,22.30
2022-08-20T08:22:42.997Z,22.20
2022-08-20T08:25:16.185Z,22.20
2022-08-20T08:27:43.730Z,22.20
2022-08-20T08:30:11.411Z,22.30
2022-08-20T08:32:59.154Z,22.20
2022-08-20T08:35:26.671Z,22.00
2022-08-20T08:37:54.118Z,21.90
2022-08-20T08:40:22.225Z,21.90
2022-08-20T08:42:58.180Z,21.80
2022-08-20T08:45:38.227Z,21.70
2022-08-20T08:48:05.419Z,21.60
2022-08-20T08:50:53.260Z,21.50
2022-08-20T08:53:36.580Z,21.50
2022-08-20T08:56:05.792Z,21.40
2022-08-20T08:58:35.266Z,21.50
2022-08-20T09:01:54.054Z,21.50
2022-08-20T09:04:10.025Z,21.40
2022-08-20T09:06:37.148Z,21.40
2022-08-20T09:09:06.581Z,21.40
2022-08-20T09:11:49.799Z,21.40
2022-08-20T09:14:17.310Z,21.50
2022-08-20T09:16:52.251Z,21.70
2022-08-20T09:19:21.592Z,21.90
2022-08-20T09:21:48.964Z,22.10
2022-08-20T09:24:16.164Z,22.30
2022-08-20T09:26:43.575Z,22.60
2022-08-20T09:29:11.074Z,22.80
2022-08-20T09:31:38.998Z,23.00
2022-08-20T09:34:06.309Z,23.30
2022-08-20T09:36:33.497Z,23.50
2022-08-20T09:39:02.759Z,23.70
2022-08-20T09:41:30.305Z,23.80
2022-08-20T09:43:57.137Z,24.00
2022-08-20T09:46:27.150Z,24.20
2022-08-20T09:48:54.804Z,24.30
2022-08-20T09:51:22.682Z,24.30
2022-08-20T09:53:49.975Z,24.40
2022-08-20T09:56:17.475Z,24.50
2022-08-20T09:58:53.372Z,24.50
2022-08-20T10:01:21.765Z,24.50
2022-08-20T10:03:49.845Z,24.70
2022-08-20T10:06:20.670Z,24.90
2022-08-20T10:08:49.053Z,25.00
2022-08-20T10:11:17.871Z,24.90
2022-08-20T10:13:45.168Z,25.00
2022-08-20T10:16:12.162Z,25.30
2022-08-20T10:18:39.037Z,25.20
2022-08-20T10:21:12.822Z,25.30
2022-08-20T10:23:39.711Z,25.30
2022-08-20T10:26:08.583Z,25.30
2022-08-20T10:28:35.742Z,25.40
2022-08-20T10:31:04.623Z,25.40
2022-08-20T10:33:31.488Z,25.70
2022-08-20T10:36:00.127Z,25.80
2022-08-20T10:38:27.120Z,25.80
2022-08-20T10:40:53.899Z,25.60
2022-08-20T10:43:20.720Z,25.70
2022-08-20T10:45:47.517Z,25.90
2022-08-20T10:48:17.198Z,25.90
2022-08-20T10:50:47.766Z,25.80
2022-08-20T10:53:14.554Z,25.70
2022-08-20T10:55:41.352Z,25.70
2022-08-20T10:58:08.767Z,25.50
2022-08-20T11:00:38.734Z,25.10
2022-08-20T11:03:05.657Z,24.50
2022-08-20T11:05:33.054Z,24.00
2022-08-20T11:08:03.309Z,23.50
2022-08-20T11:10:33.927Z,22.90
2022-08-20T11:13:02.933Z,22.30
2022-08-20T11:15:30.081Z,21.80
2022-08-20T11:17:57.169Z,21.50
2022-08-20T11:20:26.281Z,21.10
2022-08-20T11:22:54.448Z,21.20
2022-08-20T11:25:21.869Z,21.20
2022-08-20T11:27:51.093Z,21.30
2022-08-20T11:30:33.192Z,21.40
2022-08-20T11:33:01.005Z,21.40
2022-08-20T11:35:48.875Z,21.40
2022-08-20T11:38:17.183Z,21.40
2022-08-20T11:40:44.003Z,21.60
2022-08-20T11:43:16.371Z,21.70
2022-08-20T11:45:46.616Z,21.70
2022-08-20T11:48:13.946Z,21.80
2022-08-20T11:50:41.017Z,21.90
2022-08-20T11:53:08.341Z,22.00
2022-08-20T11:55:35.903Z,22.20
2022-08-20T11:58:02.988Z,22.50
2022-08-20T12:00:32.952Z,22.80
2022-08-20T12:03:09.272Z,23.00
2022-08-20T12:05:42.292Z,23.30
2022-08-20T12:08:09.669Z,23.20
2022-08-20T12:10:38.814Z,23.10
2022-08-20T12:13:06.875Z,23.00
2022-08-20T12:15:35.667Z,22.70
2022-08-20T12:18:10.032Z,22.60
2022-08-20T12:20:38.233Z,22.50
2022-08-20T12:23:05.359Z,22.30
2022-08-20T12:25:32.365Z,22.30
2022-08-20T12:27:59.659Z,22.20
2022-08-20T12:30:27.280Z,22.20
2022-08-20T12:32:54.401Z,22.00
2022-08-20T12:35:21.632Z,21.90
2022-08-20T12:37:49.889Z,21.70
2022-08-20T12:40:31.942Z,21.60
2022-08-20T12:43:03.704Z,21.50
2022-08-20T12:45:32.663Z,21.40
2022-08-20T12:48:12.958Z,21.40
2022-08-20T12:50:42.667Z,21.50
2022-08-20T12:53:09.727Z,21.70
2022-08-20T12:55:36.972Z,22.00
2022-08-20T12:58:07.465Z,22.50
2022-08-20T13:00:43.124Z,22.80
2022-08-20T13:03:12.109Z,23.20
2022-08-20T13:05:39.525Z,23.60
2022-08-20T13:08:09.897Z,23.90
2022-08-20T13:10:44.141Z,24.20
2022-08-20T13:13:12.917Z,24.60
2022-08-20T13:15:40.047Z,24.80
2022-08-20T13:18:07.419Z,24.70
2022-08-20T13:20:34.995Z,24.80
2022-08-20T13:23:03.622Z,24.90
2022-08-20T13:25:31.329Z,24.90
2022-08-20T13:28:00.791Z,24.90
2022-08-20T13:30:27.676Z,24.70
2022-08-20T13:32:54.581Z,24.80
2022-08-20T13:35:22.054Z,24.70
2022-08-20T13:37:50.090Z,24.90
2022-08-20T13:40:17.873Z,25.10
2022-08-20T13:42:45.362Z,25.10
2022-08-20T13:45:12.376Z,25.10
2022-08-20T13:47:41.472Z,25.40
2022-08-20T13:50:17.635Z,25.50
2022-08-20T13:52:45.937Z,25.50
2022-08-20T13:55:16.723Z,25.50
2022-08-20T13:57:45.503Z,25.40
2022-08-20T14:00:17.303Z,25.20
2022-08-20T14:02:44.362Z,24.90
2022-08-20T14:05:11.658Z,24.90
2022-08-20T14:07:41.886Z,24.90
2022-08-20T14:10:13.919Z,25.00
2022-08-20T14:12:40.839Z,24.90
2022-08-20T14:15:12.304Z,25.00
2022-08-20T14:17:43.078Z,24.90
2022-08-20T14:20:14.097Z,25.10
2022-08-20T14:22:42.661Z,25.40
2022-08-20T14:25:12.371Z,25.40
2022-08-20T14:27:40.331Z,25.60
2022-08-20T14:30:10.778Z,25.80
2022-08-20T14:32:37.921Z,26.00
2022-08-20T14:35:05.986Z,25.90
2022-08-20T14:37:37.974Z,25.50
2022-08-20T14:40:08.766Z,25.30
2022-08-20T14:42:36.691Z,25.30
2022-08-20T14:45:06.541Z,25.10
2022-08-20T14:47:36.497Z,25.10
2022-08-20T14:50:10.711Z,24.90
2022-08-20T14:52:38.451Z,24.90
2022-08-20T14:55:07.553Z,24.90
2022-08-20T14:57:35.603Z,24.80
2022-08-20T15:00:03.549Z,24.70
2022-08-20T15:02:31.064Z,24.80
2022-08-20T15:04:58.007Z,24.80
2022-08-20T15:07:28.127Z,24.80
2022-08-20T15:09:56.628Z,24.60
2022-08-20T15:12:24.547Z,24.70
2022-08-20T15:14:51.457Z,24.70
2022-08-20T15:17:36.579Z,24.70
2022-08-20T15:23:32.112Z,24.80
2022-08-20T15:26:01.635Z,24.90
2022-08-20T15:32:07.611Z,25.50
2022-08-20T15:34:39.141Z,25.70
2022-08-20T15:37:11.930Z,25.90
2022-08-20T15:39:41.241Z,26.10
2022-08-20T15:42:09.118Z,26.50
2022-08-20T15:44:36.941Z,26.80
2022-08-20T15:47:28.629Z,27.30
2022-08-20T15:50:03.993Z,27.70
2022-08-20T15:52:42.298Z,28.00
2022-08-20T15:55:15.865Z,28.70
2022-08-20T15:58:03.719Z,28.70
2022-08-20T16:00:42.639Z,28.10
2022-08-20T16:03:39.133Z,28.20
2022-08-20T16:06:17.380Z,28.10
2022-08-20T16:09:02.158Z,27.80
2022-08-20T16:11:47.011Z,27.60
2022-08-20T16:14:26.957Z,27.30
2022-08-20T16:17:08.962Z,26.90
2022-08-20T16:20:11.667Z,26.70
2022-08-20T16:22:43.328Z,26.50
2022-08-20T16:25:12.383Z,26.20
2022-08-20T16:27:53.116Z,26.30
2022-08-20T16:30:44.847Z,26.40
2022-08-20T16:33:27.669Z,26.00
2022-08-20T16:35:56.928Z,25.90
2022-08-20T16:38:47.038Z,25.80
2022-08-20T16:41:21.770Z,25.80
2022-08-20T16:43:54.817Z,25.60
2022-08-20T16:46:25.825Z,25.40
2022-08-20T16:48:58.125Z,25.30
2022-08-20T16:51:40.819Z,25.20
2022-08-20T16:54:09.024Z,25.20
2022-08-20T16:56:39.074Z,25.00
2022-08-20T16:59:12.526Z,24.90
2022-08-20T17:02:22.513Z,24.80
2022-08-20T17:04:59.137Z,24.60
2022-08-20T17:07:43.170Z,24.50
2022-08-20T17:10:35.123Z,24.50
2022-08-20T17:13:20.714Z,24.50
2022-08-20T17:16:01.261Z,24.40
2022-08-20T17:18:31.564Z,24.40
2022-08-20T17:21:04.868Z,24.30
2022-08-20T17:23:54.836Z,24.10
2022-08-20T17:26:35.420Z,24.10
2022-08-20T17:29:37.164Z,23.90
2022-08-20T17:32:21.684Z,23.80
2022-08-20T17:34:52.384Z,23.60
2022-08-20T17:37:22.921Z,23.50
2022-08-20T17:40:14.786Z,23.40
2022-08-20T17:42:53.869Z,23.20
2022-08-20T17:45:31.831Z,23.20
2022-08-20T17:48:00.053Z,23.00
2022-08-20T17:50:35.267Z,22.90
2022-08-20T17:53:23.025Z,22.70
2022-08-20T17:55:54.808Z,22.70
2022-08-20T17:58:37.501Z,22.50
2022-08-20T18:01:05.297Z,22.40
2022-08-20T18:03:37.229Z,22.30
2022-08-20T18:06:30.781Z,22.10
2022-08-20T18:09:06.832Z,22.00
2022-08-20T18:11:34.214Z,21.80
2022-08-20T18:14:03.976Z,21.60
2022-08-20T18:16:38.910Z,21.50
2022-08-20T18:19:18.731Z,21.40
2022-08-20T18:21:57.454Z,21.30
2022-08-20T18:24:56.804Z,21.10
2022-08-20T18:27:26.220Z,21.00
2022-08-20T18:29:58.960Z,20.80
2022-08-20T18:32:31.891Z,20.60
2022-08-20T18:35:37.445Z,20.50
2022-08-20T18:38:37.012Z,20.40
2022-08-20T18:41:37.137Z,20.30
2022-08-20T18:44:06.147Z,20.20
2022-08-20T18:46:33.303Z,20.20
2022-08-20T18:49:03.891Z,20.20
2022-08-20T18:51:51.202Z,20.10
2022-08-20T18:54:31.948Z,20.10
2022-08-20T18:57:05.872Z,20.10
2022-08-20T18:59:38.023Z,20.10
2022-08-20T19:02:37.412Z,20.20
2022-08-20T19:05:08.523Z,20.30
2022-08-20T19:07:48.212Z,20.30
2022-08-20T19:10:27.939Z,20.30
2022-08-20T19:13:16.127Z,20.30
2022-08-20T19:15:50.151Z,20.30
2022-08-20T19:18:43.267Z,20.20
2022-08-20T19:21:15.668Z,20.10
2022-08-20T19:23:50.193Z,19.90
2022-08-20T19:26:25.114Z,19.90
2022-08-20T19:28:58.897Z,19.80
2022-08-20T19:31:31.879Z,19.70
2022-08-20T19:34:20.327Z,19.70
2022-08-20T19:37:27.393Z,19.70
2022-08-20T19:39:47.985Z,19.70
2022-08-20T19:42:41.819Z,19.70
2022-08-20T19:45:17.145Z,19.60
2022-08-20T19:47:57.250Z,19.60
2022-08-20T19:50:42.200Z,19.60
2022-08-20T19:53:36.307Z,19.60
2022-08-20T19:56:12.696Z,19.50
2022-08-20T19:58:39.992Z,19.50
2022-08-20T20:01:18.964Z,19.40
2022-08-20T20:04:01.495Z,19.30
2022-08-20T20:06:30.639Z,19.20
2022-08-20T20:09:22.159Z,19.10
2022-08-20T20:11:54.071Z,19.00
2022-08-20T20:14:25.775Z,18.90
2022-08-20T20:16:53.479Z,18.80
2022-08-20T20:19:28.538Z,18.70
2022-08-20T20:22:27.250Z,18.70
2022-08-20T20:25:20.972Z,18.60
2022-08-20T20:27:54.931Z,18.60
2022-08-20T20:30:33.744Z,18.60
2022-08-20T20:33:11.016Z,18.60
2022-08-20T20:35:38.217Z,18.60
2022-08-20T20:38:27.076Z,18.60
2022-08-20T20:40:57.466Z,18.60
2022-08-20T20:43:24.239Z,18.60
2022-08-20T20:46:13.302Z,18.50
2022-08-20T20:48:48.491Z,18.60
2022-08-20T20:51:27.822Z,18.50
2022-08-20T20:53:58.742Z,18.60
2022-08-20T20:56:38.746Z,18.50
2022-08-20T20:59:07.604Z,18.50
2022-08-20T21:01:47.997Z,18.50
2022-08-20T21:04:20.364Z,18.50
2022-08-20T21:06:47.884Z,18.50
2022-08-20T21:09:15.317Z,18.50
2022-08-20T21:11:42.211Z,18.50
2022-08-20T21:14:09.207Z,18.50
2022-08-20T21:16:36.141Z,18.50
2022-08-20T21:19:05.956Z,18.50
2022-08-20T21:21:33.187Z,18.50
2022-08-20T21:24:00.194Z,18.50
2022-08-20T21:26:28.453Z,18.50
2022-08-20T21:29:02.409Z,18.50
2022-08-20T21:31:35.523Z,18.50
2022-08-20T21:34:02.804Z,18.50
2022-08-20T21:36:29.933Z,18.50
2022-08-20T21:38:57.067Z,18.50
2022-08-20T21:41:29.881Z,18.50
2022-08-20T21:43:58.873Z,18.40
2022-08-20T21:46:28.614Z,18.40
2022-08-20T21:48:56.195Z,18.30
2022-08-20T21:51:23.090Z,18.20
2022-08-20T21:53:50.145Z,18.10
2022-08-20T21:56:17.319Z,18.00
2022-08-20T21:58:49.558Z,17.90
2022-08-20T22:01:17.487Z,17.80
2022-08-20T22:03:44.744Z,17.70
2022-08-20T22:06:16.310Z,17.60
2022-08-20T22:08:43.149Z,17.50
2022-08-20T22:11:11.716Z,17.40
2022-08-20T22:13:40.607Z,17.30
2022-08-20T22:16:09.875Z,17.30
2022-08-20T22:18:37.401Z,17.20
2022-08-20T22:21:09.981Z,17.10
2022-08-20T22:23:40.117Z,17.00
2022-08-20T22:26:08.310Z,17.00
2022-08-20T22:28:35.432Z,16.90
2022-08-20T22:31:03.356Z,16.80
2022-08-20T22:33:31.877Z,16.80
2022-08-20T22:35:59.161Z,16.70
2022-08-20T22:38:26.531Z,16.70
2022-08-20T22:40:54.132Z,16.60
2022-08-20T22:43:22.003Z,16.50
2022-08-20T22:45:52.455Z,16.50
2022-08-20T22:48:20.889Z,16.40
2022-08-20T22:50:49.776Z,16.40
2022-08-20T22:53:18.709Z,16.30
2022-08-20T22:55:45.700Z,16.30
2022-08-20T22:58:13.326Z,16.20
2022-08-20T23:00:40.652Z,16.20
2022-08-20T23:03:07.783Z,16.10
2022-08-20T23:05:36.818Z,16.10
2022-08-20T23:08:07.020Z,16.00
2022-08-20T23:10:36.150Z,16.00
2022-08-20T23:13:03.236Z,15.90
2022-08-20T23:15:32.572Z,15.90
2022-08-20T23:18:06.417Z,15.80
2022-08-20T23:20:33.347Z,15.80
2022-08-20T23:23:00.252Z,15.70
2022-08-20T23:25:27.789Z,15.70
2022-08-20T23:27:56.672Z,15.70
2022-08-20T23:30:30.487Z,15.60
2022-08-20T23:32:57.718Z,15.60
2022-08-20T23:35:32.247Z,15.60
2022-08-20T23:38:00.363Z,15.60
2022-08-20T23:40:29.126Z,15.60
2022-08-20T23:42:57.207Z,15.60
2022-08-20T23:45:25.238Z,15.60
2022-08-20T23:47:52.283Z,15.50
2022-08-20T23:50:24.162Z,15.50
2022-08-20T23:52:52.044Z,15.50
2022-08-20T23:55:19.293Z,15.40
2022-08-20T23:57:46.322Z,15.40
